sensor_id;sensor_type;location;lat;lon;timestamp;P1;durP1;ratioP1;P2;durP2;ratioP2
28802;SDS011;15949;55.656;37.422;2023-12-20T00:04:37;4.20;;;3.80;;
28802;SDS011;15949;55.656;37.422;2023-12-20T00:09:43;6.43;;;4.50;;
28802;SDS011;15949;55.656;37.422;2023-12-20T00:14:49;4.75;;;4.25;;
28802;SDS011;15949;55.656;37.422;2023-12-20T00:19:54;5.65;;;4.90;;
28802;SDS011;15949;55.656;37.422;2023-12-20T00:25:00;6.05;;;4.22;;
28802;SDS011;15949;55.656;37.422;2023-12-20T00:30:05;5.65;;;4.53;;
28802;SDS011;15949;55.656;37.422;2023-12-20T00:35:18;6.78;;;4.20;;
28802;SDS011;15949;55.656;37.422;2023-12-20T00:40:24;6.90;;;4.85;;
28802;SDS011;15949;55.656;37.422;2023-12-20T00:45:29;6.95;;;4.93;;
28802;SDS011;15949;55.656;37.422;2023-12-20T00:50:35;7.43;;;5.07;;
28802;SDS011;15949;55.656;37.422;2023-12-20T00:55:41;6.57;;;5.45;;
28802;SDS011;15949;55.656;37.422;2023-12-20T01:00:46;6.18;;;5.18;;
28802;SDS011;15949;55.656;37.422;2023-12-20T01:05:52;6.57;;;5.05;;
28802;SDS011;15949;55.656;37.422;2023-12-20T01:10:58;7.55;;;5.03;;
28802;SDS011;15949;55.656;37.422;2023-12-20T01:16:03;5.57;;;4.60;;
28802;SDS011;15949;55.656;37.422;2023-12-20T01:21:09;4.80;;;4.22;;
28802;SDS011;15949;55.656;37.422;2023-12-20T01:26:15;5.78;;;3.42;;
28802;SDS011;15949;55.656;37.422;2023-12-20T01:31:20;4.43;;;3.10;;
28802;SDS011;15949;55.656;37.422;2023-12-20T01:36:26;4.43;;;3.35;;
28802;SDS011;15949;55.656;37.422;2023-12-20T01:41:32;3.88;;;2.90;;
28802;SDS011;15949;55.656;37.422;2023-12-20T01:46:37;5.63;;;2.83;;
28802;SDS011;15949;55.656;37.422;2023-12-20T01:51:43;3.70;;;2.15;;
28802;SDS011;15949;55.656;37.422;2023-12-20T01:56:50;7.82;;;2.13;;
28802;SDS011;15949;55.656;37.422;2023-12-20T02:01:56;4.20;;;1.63;;
28802;SDS011;15949;55.656;37.422;2023-12-20T02:07:01;3.60;;;1.45;;
28802;SDS011;15949;55.656;37.422;2023-12-20T02:12:08;3.30;;;1.52;;
28802;SDS011;15949;55.656;37.422;2023-12-20T02:17:15;4.45;;;1.77;;
28802;SDS011;15949;55.656;37.422;2023-12-20T02:22:21;3.03;;;1.70;;
28802;SDS011;15949;55.656;37.422;2023-12-20T02:27:26;3.83;;;1.75;;
28802;SDS011;15949;55.656;37.422;2023-12-20T02:32:34;3.80;;;2.10;;
28802;SDS011;15949;55.656;37.422;2023-12-20T02:37:39;4.68;;;2.15;;
28802;SDS011;15949;55.656;37.422;2023-12-20T02:42:45;5.13;;;2.83;;
28802;SDS011;15949;55.656;37.422;2023-12-20T02:47:51;7.68;;;4.03;;
28802;SDS011;15949;55.656;37.422;2023-12-20T02:52:56;5.97;;;3.78;;
28802;SDS011;15949;55.656;37.422;2023-12-20T02:58:02;7.03;;;4.50;;
28802;SDS011;15949;55.656;37.422;2023-12-20T03:03:07;6.95;;;4.47;;
28802;SDS011;15949;55.656;37.422;2023-12-20T03:08:13;6.72;;;4.75;;
28802;SDS011;15949;55.656;37.422;2023-12-20T03:13:19;7.82;;;4.95;;
28802;SDS011;15949;55.656;37.422;2023-12-20T03:18:24;8.48;;;5.40;;
28802;SDS011;15949;55.656;37.422;2023-12-20T03:23:30;8.38;;;5.53;;
28802;SDS011;15949;55.656;37.422;2023-12-20T03:28:37;5.97;;;5.00;;
28802;SDS011;15949;55.656;37.422;2023-12-20T03:33:43;7.43;;;6.05;;
28802;SDS011;15949;55.656;37.422;2023-12-20T03:38:48;9.02;;;6.20;;
28802;SDS011;15949;55.656;37.422;2023-12-20T03:43:54;9.68;;;6.47;;
28802;SDS011;15949;55.656;37.422;2023-12-20T03:49:00;10.18;;;6.88;;
28802;SDS011;15949;55.656;37.422;2023-12-20T03:54:05;11.38;;;6.65;;
28802;SDS011;15949;55.656;37.422;2023-12-20T03:59:11;9.60;;;6.53;;
28802;SDS011;15949;55.656;37.422;2023-12-20T04:04:16;11.48;;;7.95;;
28802;SDS011;15949;55.656;37.422;2023-12-20T04:09:22;9.18;;;7.38;;
28802;SDS011;15949;55.656;37.422;2023-12-20T04:14:27;11.15;;;7.15;;
28802;SDS011;15949;55.656;37.422;2023-12-20T04:19:33;11.07;;;7.47;;
28802;SDS011;15949;55.656;37.422;2023-12-20T04:24:39;11.30;;;7.93;;
28802;SDS011;15949;55.656;37.422;2023-12-20T04:29:44;12.23;;;7.80;;
28802;SDS011;15949;55.656;37.422;2023-12-20T04:34:50;11.00;;;7.55;;
28802;SDS011;15949;55.656;37.422;2023-12-20T04:39:55;8.93;;;6.32;;
28802;SDS011;15949;55.656;37.422;2023-12-20T04:45:01;8.15;;;4.78;;
28802;SDS011;15949;55.656;37.422;2023-12-20T04:50:07;6.07;;;4.10;;
28802;SDS011;15949;55.656;37.422;2023-12-20T04:55:13;4.70;;;3.30;;
28802;SDS011;15949;55.656;37.422;2023-12-20T05:00:19;4.25;;;3.03;;
28802;SDS011;15949;55.656;37.422;2023-12-20T05:05:24;7.97;;;3.58;;
28802;SDS011;15949;55.656;37.422;2023-12-20T05:10:30;6.32;;;3.90;;
28802;SDS011;15949;55.656;37.422;2023-12-20T05:15:36;9.13;;;4.60;;
28802;SDS011;15949;55.656;37.422;2023-12-20T05:20:41;9.27;;;5.32;;
28802;SDS011;15949;55.656;37.422;2023-12-20T05:25:47;10.20;;;5.90;;
28802;SDS011;15949;55.656;37.422;2023-12-20T05:30:53;9.70;;;5.80;;
28802;SDS011;15949;55.656;37.422;2023-12-20T05:35:59;9.35;;;6.30;;
28802;SDS011;15949;55.656;37.422;2023-12-20T05:41:04;11.32;;;7.05;;
28802;SDS011;15949;55.656;37.422;2023-12-20T05:46:10;9.13;;;6.40;;
28802;SDS011;15949;55.656;37.422;2023-12-20T05:51:17;13.05;;;6.97;;
28802;SDS011;15949;55.656;37.422;2023-12-20T05:56:23;15.93;;;6.95;;
28802;SDS011;15949;55.656;37.422;2023-12-20T06:01:29;10.63;;;6.80;;
28802;SDS011;15949;55.656;37.422;2023-12-20T06:06:34;13.45;;;6.32;;
28802;SDS011;15949;55.656;37.422;2023-12-20T06:11:46;10.82;;;6.28;;
28802;SDS011;15949;55.656;37.422;2023-12-20T06:16:51;9.82;;;6.18;;
28802;SDS011;15949;55.656;37.422;2023-12-20T06:21:57;8.75;;;5.85;;
28802;SDS011;15949;55.656;37.422;2023-12-20T06:27:03;9.73;;;5.80;;
28802;SDS011;15949;55.656;37.422;2023-12-20T06:32:08;10.65;;;5.47;;
28802;SDS011;15949;55.656;37.422;2023-12-20T06:37:15;9.15;;;5.30;;
28802;SDS011;15949;55.656;37.422;2023-12-20T06:42:20;11.13;;;5.28;;
28802;SDS011;15949;55.656;37.422;2023-12-20T06:47:26;8.20;;;4.80;;
28802;SDS011;15949;55.656;37.422;2023-12-20T06:52:31;7.60;;;4.78;;
28802;SDS011;15949;55.656;37.422;2023-12-20T06:57:37;9.30;;;5.30;;
28802;SDS011;15949;55.656;37.422;2023-12-20T07:02:43;9.73;;;5.85;;
28802;SDS011;15949;55.656;37.422;2023-12-20T07:07:49;8.77;;;4.75;;
28802;SDS011;15949;55.656;37.422;2023-12-20T07:12:54;13.27;;;4.68;;
28802;SDS011;15949;55.656;37.422;2023-12-20T07:18:00;8.73;;;5.85;;
28802;SDS011;15949;55.656;37.422;2023-12-20T07:23:06;9.93;;;4.82;;
28802;SDS011;15949;55.656;37.422;2023-12-20T07:28:11;6.65;;;4.57;;
28802;SDS011;15949;55.656;37.422;2023-12-20T07:33:17;8.50;;;4.72;;
28802;SDS011;15949;55.656;37.422;2023-12-20T07:38:22;8.23;;;4.90;;
28802;SDS011;15949;55.656;37.422;2023-12-20T07:43:28;8.90;;;4.93;;
28802;SDS011;15949;55.656;37.422;2023-12-20T07:48:37;6.55;;;4.00;;
28802;SDS011;15949;55.656;37.422;2023-12-20T07:53:43;5.85;;;4.10;;
28802;SDS011;15949;55.656;37.422;2023-12-20T07:58:49;7.55;;;4.47;;
28802;SDS011;15949;55.656;37.422;2023-12-20T08:03:54;7.45;;;4.00;;
28802;SDS011;15949;55.656;37.422;2023-12-20T08:09:00;8.30;;;4.72;;
28802;SDS011;15949;55.656;37.422;2023-12-20T08:14:05;6.40;;;3.80;;
28802;SDS011;15949;55.656;37.422;2023-12-20T08:19:11;5.22;;;4.22;;
28802;SDS011;15949;55.656;37.422;2023-12-20T08:24:17;4.85;;;3.50;;
28802;SDS011;15949;55.656;37.422;2023-12-20T08:29:23;6.05;;;4.18;;
28802;SDS011;15949;55.656;37.422;2023-12-20T08:34:28;8.65;;;4.18;;
28802;SDS011;15949;55.656;37.422;2023-12-20T08:39:34;5.75;;;4.30;;
28802;SDS011;15949;55.656;37.422;2023-12-20T08:44:40;8.90;;;4.53;;
28802;SDS011;15949;55.656;37.422;2023-12-20T08:49:45;6.88;;;4.20;;
28802;SDS011;15949;55.656;37.422;2023-12-20T08:54:51;7.47;;;4.07;;
28802;SDS011;15949;55.656;37.422;2023-12-20T08:59:58;4.63;;;4.10;;
28802;SDS011;15949;55.656;37.422;2023-12-20T09:05:04;6.75;;;4.85;;
28802;SDS011;15949;55.656;37.422;2023-12-20T09:10:10;9.63;;;4.97;;
28802;SDS011;15949;55.656;37.422;2023-12-20T09:15:15;7.40;;;4.60;;
28802;SDS011;15949;55.656;37.422;2023-12-20T09:20:21;6.22;;;4.80;;
28802;SDS011;15949;55.656;37.422;2023-12-20T09:25:28;9.40;;;6.45;;
28802;SDS011;15949;55.656;37.422;2023-12-20T09:30:35;11.52;;;7.45;;
28802;SDS011;15949;55.656;37.422;2023-12-20T09:40:50;8.63;;;5.13;;
28802;SDS011;15949;55.656;37.422;2023-12-20T09:45:55;9.20;;;5.72;;
28802;SDS011;15949;55.656;37.422;2023-12-20T09:51:07;5.20;;;3.97;;
28802;SDS011;15949;55.656;37.422;2023-12-20T09:56:13;6.45;;;3.83;;
28802;SDS011;15949;55.656;37.422;2023-12-20T10:01:19;4.65;;;3.55;;
28802;SDS011;15949;55.656;37.422;2023-12-20T10:06:24;8.05;;;3.45;;
28802;SDS011;15949;55.656;37.422;2023-12-20T10:11:30;5.22;;;3.10;;
28802;SDS011;15949;55.656;37.422;2023-12-20T10:16:36;5.57;;;3.22;;
28802;SDS011;15949;55.656;37.422;2023-12-20T10:21:41;3.40;;;2.50;;
28802;SDS011;15949;55.656;37.422;2023-12-20T10:26:47;4.60;;;2.38;;
28802;SDS011;15949;55.656;37.422;2023-12-20T10:31:52;2.53;;;2.22;;
28802;SDS011;15949;55.656;37.422;2023-12-20T10:37:02;2.97;;;2.55;;
28802;SDS011;15949;55.656;37.422;2023-12-20T10:42:09;3.95;;;2.70;;
28802;SDS011;15949;55.656;37.422;2023-12-20T10:47:17;4.47;;;3.00;;
28802;SDS011;15949;55.656;37.422;2023-12-20T10:52:23;4.88;;;2.80;;
28802;SDS011;15949;55.656;37.422;2023-12-20T10:57:30;5.57;;;2.92;;
28802;SDS011;15949;55.656;37.422;2023-12-20T11:02:37;4.22;;;2.97;;
28802;SDS011;15949;55.656;37.422;2023-12-20T11:18:15;6.70;;;3.28;;
28802;SDS011;15949;55.656;37.422;2023-12-20T11:23:21;5.28;;;3.30;;
28802;SDS011;15949;55.656;37.422;2023-12-20T11:28:27;5.70;;;3.50;;
28802;SDS011;15949;55.656;37.422;2023-12-20T11:33:36;4.32;;;3.65;;
28802;SDS011;15949;55.656;37.422;2023-12-20T11:38:56;5.13;;;3.75;;
28802;SDS011;15949;55.656;37.422;2023-12-20T11:44:03;5.45;;;3.70;;
28802;SDS011;15949;55.656;37.422;2023-12-20T11:49:09;4.65;;;3.75;;
28802;SDS011;15949;55.656;37.422;2023-12-20T11:54:15;4.30;;;3.58;;
28802;SDS011;15949;55.656;37.422;2023-12-20T11:59:21;6.22;;;3.63;;
28802;SDS011;15949;55.656;37.422;2023-12-20T12:04:27;4.55;;;3.50;;
28802;SDS011;15949;55.656;37.422;2023-12-20T12:09:34;4.53;;;3.33;;
28802;SDS011;15949;55.656;37.422;2023-12-20T12:14:39;5.57;;;3.45;;
28802;SDS011;15949;55.656;37.422;2023-12-20T12:19:45;4.75;;;3.40;;
28802;SDS011;15949;55.656;37.422;2023-12-20T12:24:51;4.72;;;3.20;;
28802;SDS011;15949;55.656;37.422;2023-12-20T12:30:03;3.72;;;3.03;;
28802;SDS011;15949;55.656;37.422;2023-12-20T12:35:13;4.93;;;3.08;;
28802;SDS011;15949;55.656;37.422;2023-12-20T12:40:19;5.70;;;3.00;;
28802;SDS011;15949;55.656;37.422;2023-12-20T12:45:25;3.97;;;3.17;;
28802;SDS011;15949;55.656;37.422;2023-12-20T12:50:32;4.28;;;2.88;;
28802;SDS011;15949;55.656;37.422;2023-12-20T12:55:37;4.10;;;3.22;;
28802;SDS011;15949;55.656;37.422;2023-12-20T13:00:43;5.25;;;2.70;;
28802;SDS011;15949;55.656;37.422;2023-12-20T13:05:49;3.92;;;2.53;;
28802;SDS011;15949;55.656;37.422;2023-12-20T13:10:55;2.58;;;2.30;;
28802;SDS011;15949;55.656;37.422;2023-12-20T13:16:02;3.53;;;2.42;;
28802;SDS011;15949;55.656;37.422;2023-12-20T13:21:08;5.78;;;2.60;;
28802;SDS011;15949;55.656;37.422;2023-12-20T13:26:14;5.22;;;3.42;;
28802;SDS011;15949;55.656;37.422;2023-12-20T13:31:20;5.20;;;2.70;;
28802;SDS011;15949;55.656;37.422;2023-12-20T13:36:26;4.47;;;2.75;;
28802;SDS011;15949;55.656;37.422;2023-12-20T13:41:32;4.00;;;2.45;;
28802;SDS011;15949;55.656;37.422;2023-12-20T13:46:37;3.75;;;2.72;;
28802;SDS011;15949;55.656;37.422;2023-12-20T13:51:43;3.10;;;2.33;;
28802;SDS011;15949;55.656;37.422;2023-12-20T13:56:49;4.68;;;2.90;;
28802;SDS011;15949;55.656;37.422;2023-12-20T14:01:54;3.15;;;2.50;;
28802;SDS011;15949;55.656;37.422;2023-12-20T14:07:02;4.47;;;2.58;;
28802;SDS011;15949;55.656;37.422;2023-12-20T14:12:08;11.20;;;6.18;;
28802;SDS011;15949;55.656;37.422;2023-12-20T14:17:14;4.32;;;2.85;;
28802;SDS011;15949;55.656;37.422;2023-12-20T14:22:19;5.00;;;3.80;;
28802;SDS011;15949;55.656;37.422;2023-12-20T14:27:26;5.80;;;4.00;;
28802;SDS011;15949;55.656;37.422;2023-12-20T14:32:34;5.60;;;3.00;;
28802;SDS011;15949;55.656;37.422;2023-12-20T14:37:42;4.25;;;3.17;;
28802;SDS011;15949;55.656;37.422;2023-12-20T14:42:47;5.70;;;3.33;;
28802;SDS011;15949;55.656;37.422;2023-12-20T14:47:54;4.75;;;3.50;;
28802;SDS011;15949;55.656;37.422;2023-12-20T14:53:00;6.00;;;3.65;;
28802;SDS011;15949;55.656;37.422;2023-12-20T14:58:06;5.57;;;3.75;;
28802;SDS011;15949;55.656;37.422;2023-12-20T15:03:11;4.47;;;3.60;;
28802;SDS011;15949;55.656;37.422;2023-12-20T15:08:17;4.63;;;3.45;;
28802;SDS011;15949;55.656;37.422;2023-12-20T15:13:22;8.40;;;3.80;;
28802;SDS011;15949;55.656;37.422;2023-12-20T15:18:30;8.43;;;4.43;;
28802;SDS011;15949;55.656;37.422;2023-12-20T15:23:37;7.13;;;4.20;;
28802;SDS011;15949;55.656;37.422;2023-12-20T15:28:43;7.28;;;4.40;;
28802;SDS011;15949;55.656;37.422;2023-12-20T15:33:48;5.47;;;3.80;;
28802;SDS011;15949;55.656;37.422;2023-12-20T15:38:54;7.78;;;4.00;;
28802;SDS011;15949;55.656;37.422;2023-12-20T15:43:59;7.30;;;4.38;;
28802;SDS011;15949;55.656;37.422;2023-12-20T15:49:05;7.38;;;4.47;;
28802;SDS011;15949;55.656;37.422;2023-12-20T15:54:11;6.43;;;4.00;;
28802;SDS011;15949;55.656;37.422;2023-12-20T15:59:17;5.28;;;4.03;;
28802;SDS011;15949;55.656;37.422;2023-12-20T16:04:23;6.38;;;3.83;;
28802;SDS011;15949;55.656;37.422;2023-12-20T16:09:29;4.20;;;3.10;;
28802;SDS011;15949;55.656;37.422;2023-12-20T16:14:34;5.75;;;3.20;;
28802;SDS011;15949;55.656;37.422;2023-12-20T16:19:40;4.82;;;3.17;;
28802;SDS011;15949;55.656;37.422;2023-12-20T16:24:46;5.28;;;3.47;;
28802;SDS011;15949;55.656;37.422;2023-12-20T16:29:52;7.18;;;3.50;;
28802;SDS011;15949;55.656;37.422;2023-12-20T16:34:57;4.40;;;2.80;;
28802;SDS011;15949;55.656;37.422;2023-12-20T16:40:04;6.25;;;3.00;;
28802;SDS011;15949;55.656;37.422;2023-12-20T16:45:11;5.63;;;3.33;;
28802;SDS011;15949;55.656;37.422;2023-12-20T16:50:17;5.30;;;3.40;;
28802;SDS011;15949;55.656;37.422;2023-12-20T16:55:22;4.10;;;2.28;;
28802;SDS011;15949;55.656;37.422;2023-12-20T17:00:28;5.07;;;2.95;;
28802;SDS011;15949;55.656;37.422;2023-12-20T17:05:33;5.18;;;2.50;;
28802;SDS011;15949;55.656;37.422;2023-12-20T17:10:40;6.90;;;3.50;;
28802;SDS011;15949;55.656;37.422;2023-12-20T17:15:46;9.10;;;4.80;;
28802;SDS011;15949;55.656;37.422;2023-12-20T17:20:52;5.75;;;3.97;;
28802;SDS011;15949;55.656;37.422;2023-12-20T17:25:57;8.45;;;4.88;;
28802;SDS011;15949;55.656;37.422;2023-12-20T17:31:03;8.32;;;5.78;;
28802;SDS011;15949;55.656;37.422;2023-12-20T17:36:09;9.63;;;4.85;;
28802;SDS011;15949;55.656;37.422;2023-12-20T17:41:15;6.75;;;3.63;;
28802;SDS011;15949;55.656;37.422;2023-12-20T17:46:21;5.55;;;2.90;;
28802;SDS011;15949;55.656;37.422;2023-12-20T17:51:27;10.27;;;3.10;;
28802;SDS011;15949;55.656;37.422;2023-12-20T17:56:32;4.82;;;3.15;;
28802;SDS011;15949;55.656;37.422;2023-12-20T18:01:38;6.97;;;3.63;;
28802;SDS011;15949;55.656;37.422;2023-12-20T18:06:44;7.32;;;3.60;;
28802;SDS011;15949;55.656;37.422;2023-12-20T18:11:49;5.88;;;3.28;;
28802;SDS011;15949;55.656;37.422;2023-12-20T18:16:55;5.28;;;3.00;;
28802;SDS011;15949;55.656;37.422;2023-12-20T18:22:01;4.57;;;2.80;;
28802;SDS011;15949;55.656;37.422;2023-12-20T18:27:06;6.93;;;4.05;;
28802;SDS011;15949;55.656;37.422;2023-12-20T18:32:12;3.20;;;2.67;;
28802;SDS011;15949;55.656;37.422;2023-12-20T18:37:17;5.28;;;2.80;;
28802;SDS011;15949;55.656;37.422;2023-12-20T18:42:23;6.43;;;3.10;;
28802;SDS011;15949;55.656;37.422;2023-12-20T18:47:29;5.15;;;3.13;;
28802;SDS011;15949;55.656;37.422;2023-12-20T18:52:35;7.55;;;4.57;;
28802;SDS011;15949;55.656;37.422;2023-12-20T18:57:41;6.30;;;3.65;;
28802;SDS011;15949;55.656;37.422;2023-12-20T19:02:46;7.00;;;2.88;;
28802;SDS011;15949;55.656;37.422;2023-12-20T19:07:53;4.15;;;2.70;;
28802;SDS011;15949;55.656;37.422;2023-12-20T19:12:58;6.47;;;3.40;;
28802;SDS011;15949;55.656;37.422;2023-12-20T19:18:04;5.25;;;3.90;;
28802;SDS011;15949;55.656;37.422;2023-12-20T19:23:10;6.05;;;3.10;;
28802;SDS011;15949;55.656;37.422;2023-12-20T19:28:16;5.80;;;2.97;;
28802;SDS011;15949;55.656;37.422;2023-12-20T19:33:22;5.43;;;2.58;;
28802;SDS011;15949;55.656;37.422;2023-12-20T19:38:28;4.72;;;2.30;;
28802;SDS011;15949;55.656;37.422;2023-12-20T19:43:33;3.85;;;2.40;;
28802;SDS011;15949;55.656;37.422;2023-12-20T19:48:39;5.38;;;2.63;;
28802;SDS011;15949;55.656;37.422;2023-12-20T19:53:45;4.88;;;2.72;;
28802;SDS011;15949;55.656;37.422;2023-12-20T19:58:50;8.45;;;4.55;;
28802;SDS011;15949;55.656;37.422;2023-12-20T20:03:56;10.02;;;4.80;;
28802;SDS011;15949;55.656;37.422;2023-12-20T20:09:02;9.98;;;5.90;;
28802;SDS011;15949;55.656;37.422;2023-12-20T20:14:10;7.00;;;4.13;;
28802;SDS011;15949;55.656;37.422;2023-12-20T20:19:16;11.77;;;6.00;;
28802;SDS011;15949;55.656;37.422;2023-12-20T20:24:22;9.35;;;5.10;;
28802;SDS011;15949;55.656;37.422;2023-12-20T20:29:28;8.57;;;5.00;;
28802;SDS011;15949;55.656;37.422;2023-12-20T20:34:34;9.80;;;4.72;;
28802;SDS011;15949;55.656;37.422;2023-12-20T20:39:40;11.55;;;4.78;;
28802;SDS011;15949;55.656;37.422;2023-12-20T20:44:45;8.73;;;4.45;;
28802;SDS011;15949;55.656;37.422;2023-12-20T20:49:51;8.00;;;3.83;;
28802;SDS011;15949;55.656;37.422;2023-12-20T20:54:57;10.73;;;3.78;;
28802;SDS011;15949;55.656;37.422;2023-12-20T21:00:04;10.73;;;4.22;;
28802;SDS011;15949;55.656;37.422;2023-12-20T21:05:11;7.57;;;3.80;;
28802;SDS011;15949;55.656;37.422;2023-12-20T21:10:16;7.03;;;3.92;;
28802;SDS011;15949;55.656;37.422;2023-12-20T21:15:23;7.97;;;3.67;;
28802;SDS011;15949;55.656;37.422;2023-12-20T21:20:28;8.27;;;3.72;;
28802;SDS011;15949;55.656;37.422;2023-12-20T21:25:34;9.70;;;4.65;;
28802;SDS011;15949;55.656;37.422;2023-12-20T21:30:41;13.82;;;6.25;;
28802;SDS011;15949;55.656;37.422;2023-12-20T21:35:46;12.15;;;6.82;;
28802;SDS011;15949;55.656;37.422;2023-12-20T21:40:52;13.13;;;8.57;;
28802;SDS011;15949;55.656;37.422;2023-12-20T21:45:58;21.00;;;9.13;;
28802;SDS011;15949;55.656;37.422;2023-12-20T21:51:04;18.52;;;12.20;;
28802;SDS011;15949;55.656;37.422;2023-12-20T21:56:10;25.77;;;15.18;;
28802;SDS011;15949;55.656;37.422;2023-12-20T22:01:15;25.38;;;15.80;;
28802;SDS011;15949;55.656;37.422;2023-12-20T22:06:21;30.13;;;17.42;;
28802;SDS011;15949;55.656;37.422;2023-12-20T22:11:26;32.78;;;19.75;;
28802;SDS011;15949;55.656;37.422;2023-12-20T22:16:32;29.92;;;17.98;;
28802;SDS011;15949;55.656;37.422;2023-12-20T22:21:38;28.13;;;17.77;;
28802;SDS011;15949;55.656;37.422;2023-12-20T22:26:44;33.05;;;18.45;;
28802;SDS011;15949;55.656;37.422;2023-12-20T22:31:50;30.92;;;17.73;;
28802;SDS011;15949;55.656;37.422;2023-12-20T22:36:56;37.03;;;19.23;;
28802;SDS011;15949;55.656;37.422;2023-12-20T22:42:02;33.45;;;18.10;;
28802;SDS011;15949;55.656;37.422;2023-12-20T22:47:08;29.05;;;17.17;;
28802;SDS011;15949;55.656;37.422;2023-12-20T22:52:15;23.52;;;13.77;;
28802;SDS011;15949;55.656;37.422;2023-12-20T22:57:21;19.67;;;12.18;;
28802;SDS011;15949;55.656;37.422;2023-12-20T23:02:27;15.35;;;10.52;;
28802;SDS011;15949;55.656;37.422;2023-12-20T23:07:32;16.17;;;10.10;;
28802;SDS011;15949;55.656;37.422;2023-12-20T23:12:38;14.57;;;8.73;;
28802;SDS011;15949;55.656;37.422;2023-12-20T23:17:44;9.80;;;7.10;;
28802;SDS011;15949;55.656;37.422;2023-12-20T23:22:50;13.02;;;7.07;;
28802;SDS011;15949;55.656;37.422;2023-12-20T23:27:55;7.82;;;6.28;;
28802;SDS011;15949;55.656;37.422;2023-12-20T23:33:01;8.45;;;6.38;;
28802;SDS011;15949;55.656;37.422;2023-12-20T23:38:06;6.80;;;5.55;;
28802;SDS011;15949;55.656;37.422;2023-12-20T23:43:12;7.93;;;6.00;;
28802;SDS011;15949;55.656;37.422;2023-12-20T23:48:18;8.45;;;5.85;;
28802;SDS011;15949;55.656;37.422;2023-12-20T23:53:23;6.82;;;5.32;;
28802;SDS011;15949;55.656;37.422;2023-12-20T23:58:29;7.00;;;5.22;;
